createdAt,value
2018-07-16T00:00:54.221Z,84.50
2018-07-16T00:03:22.636Z,84.60
2018-07-16T00:05:51.066Z,84.50
2018-07-16T00:08:19.468Z,84.60
2018-07-16T00:10:47.897Z,84.80
2018-07-16T00:13:16.355Z,84.80
2018-07-16T00:15:44.804Z,84.90
2018-07-16T00:18:14.173Z,84.80
2018-07-16T00:20:42.616Z,84.90
2018-07-16T00:23:11.018Z,84.90
2018-07-16T00:25:39.420Z,85.10
2018-07-16T00:28:07.885Z,85.10
2018-07-16T00:30:36.277Z,85.10
2018-07-16T00:33:04.724Z,85.10
2018-07-16T00:36:03.910Z,85.10
2018-07-16T00:38:32.367Z,84.90
2018-07-16T00:41:00.767Z,84.90
2018-07-16T00:43:29.197Z,84.90
2018-07-16T00:45:57.580Z,84.90
2018-07-16T00:48:25.988Z,84.90
2018-07-16T00:50:54.573Z,85.10
2018-07-16T00:53:23.014Z,85.10
2018-07-16T00:55:51.454Z,85.20
2018-07-16T00:58:19.889Z,85.20
2018-07-16T01:00:48.288Z,85.20
2018-07-16T01:03:16.812Z,85.40
2018-07-16T01:05:45.259Z,85.40
2018-07-16T01:08:13.873Z,85.50
2018-07-16T01:10:42.303Z,85.70
2018-07-16T01:13:10.754Z,85.70
2018-07-16T01:15:39.182Z,85.60
2018-07-16T01:18:07.613Z,85.70
2018-07-16T01:20:36.365Z,85.90
2018-07-16T01:23:04.824Z,85.90
2018-07-16T01:25:33.375Z,85.90
2018-07-16T01:28:01.876Z,86.00
2018-07-16T01:30:30.249Z,85.90
2018-07-16T01:32:58.669Z,86.00
2018-07-16T01:35:27.085Z,86.00
2018-07-16T01:37:55.652Z,86.00
2018-07-16T01:40:24.104Z,86.10
2018-07-16T01:46:49.821Z,86.10
2018-07-16T01:49:18.525Z,86.00
2018-07-16T01:51:46.945Z,86.10
2018-07-16T01:54:15.388Z,86.00
2018-07-16T01:59:11.947Z,86.00
2018-07-16T02:01:40.367Z,85.90
2018-07-16T02:04:08.839Z,85.80
2018-07-16T02:06:37.222Z,85.90
2018-07-16T02:09:05.665Z,85.90
2018-07-16T02:11:34.348Z,85.80
2018-07-16T02:14:02.832Z,85.80
2018-07-16T02:16:31.397Z,85.60
2018-07-16T02:18:59.832Z,85.90
2018-07-16T02:21:28.244Z,86.10
2018-07-16T02:23:56.671Z,86.20
2018-07-16T02:26:25.052Z,86.30
2018-07-16T02:28:53.513Z,86.30
2018-07-16T02:31:22.014Z,86.30
2018-07-16T02:33:50.441Z,86.50
2018-07-16T02:36:18.975Z,86.30
2018-07-16T02:38:47.400Z,86.30
2018-07-16T02:41:15.857Z,86.10
2018-07-16T02:43:44.285Z,85.90
2018-07-16T02:46:12.848Z,86.20
2018-07-16T02:48:41.307Z,86.30
2018-07-16T02:51:09.723Z,86.10
2018-07-16T02:53:38.166Z,86.20
2018-07-16T02:56:06.581Z,85.90
2018-07-16T02:58:35.196Z,86.20
2018-07-16T03:01:03.612Z,85.90
2018-07-16T03:04:07.562Z,85.90
2018-07-16T03:06:36.814Z,85.90
2018-07-16T03:09:06.256Z,86.10
2018-07-16T03:11:34.857Z,86.10
2018-07-16T03:16:31.421Z,86.10
2018-07-16T03:18:59.881Z,86.10
2018-07-16T03:21:28.328Z,86.20
2018-07-16T03:23:56.814Z,86.20
2018-07-16T03:26:25.238Z,86.30
2018-07-16T03:28:53.808Z,86.30
2018-07-16T03:31:22.244Z,86.20
2018-07-16T03:33:50.725Z,86.50
2018-07-16T03:36:19.168Z,86.60
2018-07-16T03:38:47.608Z,86.70
2018-07-16T03:41:16.171Z,86.80
2018-07-16T03:43:44.662Z,87.00
2018-07-16T03:46:13.114Z,87.20
2018-07-16T03:48:41.577Z,87.20
2018-07-16T03:51:10.018Z,87.10
2018-07-16T03:53:38.486Z,87.00
2018-07-16T03:56:06.916Z,87.00
2018-07-16T04:01:03.556Z,86.80
2018-07-16T04:03:32.176Z,86.70
2018-07-16T04:06:00.637Z,86.60
2018-07-16T04:08:29.076Z,86.60
2018-07-16T04:10:57.526Z,86.30
2018-07-16T04:13:25.977Z,86.70
2018-07-16T04:18:22.501Z,87.50
2018-07-16T04:20:51.107Z,88.90
2018-07-16T04:23:19.892Z,89.00
2018-07-16T04:25:48.372Z,89.20
2018-07-16T04:28:16.999Z,89.40
2018-07-16T04:30:45.449Z,89.60
2018-07-16T04:33:14.093Z,89.70
2018-07-16T04:35:42.571Z,89.80
2018-07-16T04:38:10.968Z,89.90
2018-07-16T04:43:07.624Z,90.20
2018-07-16T04:45:36.332Z,90.30
2018-07-16T04:48:04.775Z,90.30
2018-07-16T04:50:33.208Z,90.50
2018-07-16T04:53:02.067Z,90.60
2018-07-16T04:55:30.505Z,90.60
2018-07-16T04:57:58.976Z,90.60
2018-07-16T05:00:27.412Z,90.70
2018-07-16T05:02:56.044Z,90.50
2018-07-16T05:05:24.524Z,90.60
2018-07-16T05:07:52.937Z,90.60
2018-07-16T05:10:21.384Z,90.60
2018-07-16T05:15:18.524Z,90.60
2018-07-16T05:17:46.965Z,90.90
2018-07-16T05:20:15.417Z,91.10
2018-07-16T05:22:44.219Z,91.30
2018-07-16T05:25:12.691Z,91.30
2018-07-16T05:27:41.347Z,91.30
2018-07-16T05:32:38.639Z,91.50
2018-07-16T05:35:06.928Z,91.50
2018-07-16T05:37:35.364Z,91.60
2018-07-16T05:40:03.917Z,92.10
2018-07-16T05:42:32.343Z,92.10
2018-07-16T05:45:00.789Z,92.30
2018-07-16T05:47:29.233Z,92.30
2018-07-16T05:50:01.464Z,92.10
2018-07-16T05:52:29.976Z,91.90
2018-07-16T05:54:58.595Z,91.90
2018-07-16T05:57:27.075Z,91.80
2018-07-16T05:59:55.637Z,91.50
2018-07-16T06:02:24.109Z,91.30
2018-07-16T06:04:52.542Z,91.40
2018-07-16T06:07:21.218Z,91.40
2018-07-16T06:09:49.652Z,91.40
2018-07-16T06:12:18.157Z,91.00
2018-07-16T06:14:46.600Z,91.00
2018-07-16T06:17:15.076Z,90.80
2018-07-16T06:19:43.601Z,90.50
2018-07-16T06:22:12.086Z,90.40
2018-07-16T06:24:40.519Z,90.30
2018-07-16T06:27:08.959Z,90.80
2018-07-16T06:29:37.360Z,90.80
2018-07-16T06:32:06.398Z,90.90
2018-07-16T06:34:34.814Z,90.80
2018-07-16T06:37:03.378Z,90.70
2018-07-16T06:42:00.100Z,90.30
2018-07-16T06:44:28.532Z,90.40
2018-07-16T06:46:56.972Z,90.40
2018-07-16T06:49:25.849Z,90.30
2018-07-16T06:51:54.584Z,90.30
2018-07-16T06:54:23.160Z,90.10
2018-07-16T06:56:51.878Z,89.90
2018-07-16T06:59:20.742Z,89.80
2018-07-16T07:01:49.220Z,89.50
2018-07-16T07:04:17.621Z,89.50
2018-07-16T07:06:46.068Z,89.00
2018-07-16T07:09:14.474Z,88.10
2018-07-16T07:11:43.079Z,87.40
2018-07-16T07:14:11.540Z,86.80
2018-07-16T07:16:40.049Z,86.20
2018-07-16T07:19:08.619Z,84.80
2018-07-16T07:21:37.157Z,83.90
2018-07-16T07:24:05.631Z,83.80
2018-07-16T07:26:34.331Z,83.70
2018-07-16T07:29:02.798Z,83.00
2018-07-16T07:31:31.330Z,82.60
2018-07-16T07:33:59.768Z,83.70
2018-07-16T07:36:28.267Z,83.80
2018-07-16T07:38:56.720Z,83.90
2018-07-16T07:41:25.328Z,84.00
2018-07-16T07:43:53.806Z,84.20
2018-07-16T07:46:22.456Z,84.60
2018-07-16T07:48:50.898Z,83.50
2018-07-16T07:51:19.361Z,83.30
2018-07-16T07:53:47.829Z,83.70
2018-07-16T07:56:16.344Z,83.80
2018-07-16T07:58:45.000Z,83.50
2018-07-16T08:01:13.482Z,82.90
2018-07-16T08:03:42.113Z,82.80
2018-07-16T08:06:10.521Z,82.30
2018-07-16T08:08:39.076Z,81.20
2018-07-16T08:11:07.658Z,83.20
2018-07-16T08:13:36.431Z,75.60
2018-07-16T08:16:05.148Z,74.10
2018-07-16T08:18:33.706Z,67.30
2018-07-16T08:21:02.219Z,65.30
2018-07-16T08:23:30.874Z,65.50
2018-07-16T08:25:59.317Z,65.80
2018-07-16T08:28:28.017Z,66.10
2018-07-16T08:30:56.475Z,66.70
2018-07-16T08:33:25.094Z,66.90
2018-07-16T08:35:53.777Z,67.70
2018-07-16T08:38:22.241Z,69.40
2018-07-16T08:40:50.696Z,69.10
2018-07-16T08:43:19.137Z,68.90
2018-07-16T08:45:47.615Z,70.00
2018-07-16T08:48:16.067Z,70.40
2018-07-16T08:50:44.493Z,70.80
2018-07-16T08:53:13.008Z,70.50
2018-07-16T08:55:41.408Z,70.90
2018-07-16T08:58:09.901Z,72.30
2018-07-16T09:00:38.336Z,73.20
2018-07-16T09:03:06.816Z,73.50
2018-07-16T09:05:35.372Z,73.50
2018-07-16T09:08:04.103Z,73.90
2018-07-16T09:10:32.555Z,75.20
2018-07-16T09:13:01.081Z,74.50
2018-07-16T09:15:29.501Z,71.90
2018-07-16T09:17:57.930Z,68.50
2018-07-16T09:20:26.400Z,68.00
2018-07-16T09:22:55.116Z,67.40
2018-07-16T09:25:23.671Z,65.30
2018-07-16T09:27:52.080Z,63.30
2018-07-16T09:30:20.632Z,61.40
2018-07-16T09:32:49.434Z,63.10
2018-07-16T09:35:17.836Z,64.40
2018-07-16T09:37:46.293Z,63.80
2018-07-16T09:40:14.941Z,61.30
2018-07-16T09:42:43.414Z,61.40
2018-07-16T09:45:12.292Z,60.30
2018-07-16T09:47:40.725Z,57.80
2018-07-16T09:50:10.518Z,57.20
2018-07-16T09:52:38.940Z,56.80
2018-07-16T09:55:07.838Z,56.10
2018-07-16T09:57:36.400Z,55.30
2018-07-16T10:00:05.510Z,54.90
2018-07-16T10:02:33.945Z,54.00
2018-07-16T10:05:02.411Z,53.40
2018-07-16T10:07:31.629Z,56.70
2018-07-16T10:10:00.132Z,56.60
2018-07-16T10:12:28.568Z,52.40
2018-07-16T10:14:57.053Z,52.50
2018-07-16T10:17:25.448Z,51.20
2018-07-16T10:19:54.028Z,51.90
2018-07-16T10:22:22.467Z,53.00
2018-07-16T10:24:50.924Z,59.20
2018-07-16T10:27:19.517Z,58.60
2018-07-16T10:29:47.944Z,56.90
2018-07-16T10:32:16.398Z,58.20
2018-07-16T10:34:44.861Z,59.00
2018-07-16T10:37:13.657Z,59.80
2018-07-16T10:39:42.090Z,58.60
2018-07-16T10:42:10.564Z,59.10
2018-07-16T10:44:39.013Z,60.00
2018-07-16T10:47:07.465Z,58.90
2018-07-16T10:49:35.926Z,58.50
2018-07-16T10:52:04.492Z,57.80
2018-07-16T10:54:33.100Z,55.70
2018-07-16T10:57:01.523Z,55.60
2018-07-16T10:59:29.976Z,56.40
2018-07-16T11:01:58.437Z,56.60
2018-07-16T11:04:26.888Z,57.20
2018-07-16T11:06:55.297Z,57.40
2018-07-16T11:09:23.755Z,60.40
2018-07-16T11:11:52.368Z,60.50
2018-07-16T11:14:20.815Z,59.80
2018-07-16T11:16:49.268Z,61.30
2018-07-16T11:19:17.679Z,62.40
2018-07-16T11:21:46.125Z,63.10
2018-07-16T11:24:14.868Z,63.40
2018-07-16T11:26:43.351Z,64.20
2018-07-16T11:29:11.953Z,65.80
2018-07-16T11:34:08.517Z,66.00
2018-07-16T11:36:37.024Z,66.50
2018-07-16T11:39:07.445Z,66.50
2018-07-16T11:41:36.042Z,66.20
2018-07-16T11:44:04.484Z,66.50
2018-07-16T11:46:33.584Z,66.20
2018-07-16T11:49:01.995Z,66.60
2018-07-16T11:51:30.425Z,66.10
2018-07-16T11:53:58.857Z,66.90
2018-07-16T11:56:27.643Z,66.70
2018-07-16T11:58:56.037Z,65.20
2018-07-16T12:01:24.629Z,65.70
2018-07-16T12:03:53.060Z,65.60
2018-07-16T12:06:23.996Z,65.20
2018-07-16T12:08:53.951Z,65.80
2018-07-16T12:11:22.620Z,65.60
2018-07-16T12:13:51.273Z,65.70
2018-07-16T12:16:19.740Z,65.20
2018-07-16T12:18:48.254Z,64.40
2018-07-16T12:21:16.720Z,65.50
2018-07-16T12:23:45.141Z,64.10
2018-07-16T12:26:13.588Z,63.90
2018-07-16T12:28:42.053Z,65.10
2018-07-16T12:31:10.527Z,65.40
2018-07-16T12:36:07.144Z,64.70
2018-07-16T12:38:35.589Z,64.50
2018-07-16T12:41:04.065Z,64.80
2018-07-16T12:43:32.448Z,65.10
2018-07-16T12:46:00.988Z,64.90
2018-07-16T12:48:29.482Z,64.90
2018-07-16T12:50:57.920Z,65.60
2018-07-16T12:53:26.377Z,65.90
2018-07-16T12:55:54.857Z,65.60
2018-07-16T12:58:23.278Z,65.40
2018-07-16T13:00:51.719Z,65.40
2018-07-16T13:03:20.302Z,65.20
2018-07-16T13:05:48.845Z,65.10
2018-07-16T13:08:17.288Z,64.60
2018-07-16T13:10:45.706Z,63.90
2018-07-16T13:13:14.164Z,63.40
2018-07-16T13:15:43.010Z,63.70
2018-07-16T13:18:11.832Z,64.60
2018-07-16T13:20:40.463Z,64.00
2018-07-16T13:23:08.898Z,64.00
2018-07-16T13:25:37.345Z,63.30
2018-07-16T13:28:05.844Z,63.90
2018-07-16T13:30:34.281Z,63.30
2018-07-16T13:33:02.755Z,62.40
2018-07-16T13:35:31.236Z,61.80
2018-07-16T13:37:59.936Z,61.90
2018-07-16T13:40:28.348Z,63.00
2018-07-16T13:42:57.004Z,63.00
2018-07-16T13:45:25.441Z,62.60
2018-07-16T13:47:53.872Z,63.30
2018-07-16T13:50:22.303Z,63.00
2018-07-16T13:52:50.835Z,62.30
2018-07-16T13:55:19.364Z,62.30
2018-07-16T14:01:19.142Z,63.10
2018-07-16T14:03:47.648Z,63.20
2018-07-16T14:06:16.096Z,62.70
2018-07-16T14:08:44.616Z,62.40
2018-07-16T14:11:13.036Z,62.90
2018-07-16T14:16:09.617Z,63.00
2018-07-16T14:18:38.207Z,62.50
2018-07-16T14:21:06.649Z,61.30
2018-07-16T14:23:35.128Z,61.60
2018-07-16T14:26:03.552Z,62.10
2018-07-16T14:28:32.186Z,61.80
2018-07-16T14:31:00.781Z,62.10
2018-07-16T14:33:29.253Z,62.00
2018-07-16T14:35:57.736Z,62.40
2018-07-16T14:38:26.197Z,62.90
2018-07-16T14:40:54.908Z,63.10
2018-07-16T14:43:23.390Z,63.10
2018-07-16T14:45:51.853Z,64.20
2018-07-16T14:48:20.445Z,64.30
2018-07-16T14:50:48.881Z,64.50
2018-07-16T14:55:45.467Z,65.10
2018-07-16T14:58:13.942Z,65.30
2018-07-16T15:00:42.590Z,66.00
2018-07-16T15:05:39.179Z,66.70
2018-07-16T15:08:07.628Z,65.30
2018-07-16T15:10:36.156Z,66.80
2018-07-16T15:13:04.845Z,67.30
2018-07-16T15:15:33.280Z,69.00
2018-07-16T15:18:01.756Z,69.40
2018-07-16T15:20:30.332Z,72.30
2018-07-16T15:22:58.709Z,72.30
2018-07-16T15:25:27.132Z,72.00
2018-07-16T15:27:55.684Z,70.50
2018-07-16T15:30:24.172Z,70.30
2018-07-16T15:32:52.614Z,70.40
2018-07-16T15:35:21.069Z,70.80
2018-07-16T15:40:17.825Z,70.80
2018-07-16T15:45:14.465Z,69.70
2018-07-16T15:47:42.920Z,70.00
2018-07-16T15:50:11.376Z,70.50
2018-07-16T15:52:39.782Z,70.60
2018-07-16T15:55:08.241Z,70.50
2018-07-16T15:57:36.717Z,70.80
2018-07-16T16:00:05.426Z,72.10
2018-07-16T16:02:33.881Z,72.50
2018-07-16T16:05:02.334Z,72.90
2018-07-16T16:07:31.916Z,73.10
2018-07-16T16:10:01.346Z,72.90
2018-07-16T16:12:29.806Z,71.60
2018-07-16T16:14:58.382Z,71.50
2018-07-16T16:17:26.793Z,71.70
2018-07-16T16:19:55.317Z,71.50
2018-07-16T16:22:23.751Z,70.90
2018-07-16T16:24:52.200Z,71.00
2018-07-16T16:27:20.616Z,70.90
2018-07-16T16:29:49.169Z,70.30
2018-07-16T16:32:17.728Z,70.40
2018-07-16T16:34:46.416Z,70.20
2018-07-16T16:37:14.873Z,70.30
2018-07-16T16:39:43.464Z,70.20
2018-07-16T16:42:11.935Z,70.30
2018-07-16T16:44:40.435Z,70.30
2018-07-16T16:47:09.567Z,70.10
2018-07-16T16:49:38.068Z,70.10
2018-07-16T16:54:34.744Z,69.90
2018-07-16T16:57:03.397Z,70.80
2018-07-16T16:59:32.013Z,70.90
2018-07-16T17:02:00.674Z,71.20
2018-07-16T17:04:29.373Z,71.50
2018-07-16T17:06:57.890Z,71.80
2018-07-16T17:09:26.345Z,71.00
2018-07-16T17:11:54.891Z,70.90
2018-07-16T17:14:23.305Z,70.00
2018-07-16T17:16:51.727Z,70.00
2018-07-16T17:21:48.470Z,70.10
2018-07-16T17:24:16.928Z,70.20
2018-07-16T17:26:45.396Z,70.50
2018-07-16T17:29:14.036Z,71.00
2018-07-16T17:31:42.476Z,70.90
2018-07-16T17:34:10.945Z,71.00
2018-07-16T17:36:39.400Z,71.20
2018-07-16T17:39:09.084Z,71.00
2018-07-16T17:41:37.552Z,71.10
2018-07-16T17:44:05.964Z,70.90
2018-07-16T17:46:34.393Z,71.00
2018-07-16T17:49:02.813Z,71.20
2018-07-16T17:51:31.362Z,71.00
2018-07-16T17:53:59.844Z,71.10
2018-07-16T17:56:28.340Z,71.10
2018-07-16T17:58:56.798Z,71.10
2018-07-16T18:01:25.428Z,71.20
2018-07-16T18:03:53.707Z,71.60
2018-07-16T18:06:22.195Z,71.70
2018-07-16T18:08:50.665Z,71.80
2018-07-16T18:11:19.141Z,71.60
2018-07-16T18:13:47.820Z,71.90
2018-07-16T18:16:16.300Z,72.00
2018-07-16T18:18:45.090Z,72.80
2018-07-16T18:21:13.600Z,72.40
2018-07-16T18:23:42.045Z,73.00
2018-07-16T18:26:10.596Z,73.40
2018-07-16T18:28:39.019Z,73.70
2018-07-16T18:31:07.969Z,73.90
2018-07-16T18:33:36.668Z,74.30
2018-07-16T18:36:05.173Z,74.70
2018-07-16T18:41:01.781Z,75.80
2018-07-16T18:43:30.214Z,76.00
2018-07-16T18:45:58.657Z,76.30
2018-07-16T18:48:27.306Z,76.50
2018-07-16T18:50:55.842Z,76.80
2018-07-16T18:53:24.312Z,77.10
2018-07-16T18:55:52.833Z,77.30
2018-07-16T18:58:21.273Z,77.60
2018-07-16T19:00:49.988Z,77.70
2018-07-16T19:03:18.477Z,77.70
2018-07-16T19:05:46.929Z,78.40
2018-07-16T19:08:15.341Z,78.40
2018-07-16T19:10:43.908Z,78.70
2018-07-16T19:13:12.368Z,79.00
2018-07-16T19:15:40.848Z,79.20
2018-07-16T19:18:09.545Z,79.40
2018-07-16T19:20:38.174Z,79.40
2018-07-16T19:23:06.562Z,79.80
2018-07-16T19:25:35.043Z,80.00
2018-07-16T19:28:03.499Z,80.10
2018-07-16T19:30:31.909Z,80.20
2018-07-16T19:33:00.396Z,80.40
2018-07-16T19:35:29.604Z,80.40
2018-07-16T19:37:58.169Z,80.60
2018-07-16T19:40:26.594Z,81.40
2018-07-16T19:42:55.060Z,81.70
2018-07-16T19:45:23.481Z,81.80
2018-07-16T19:47:51.934Z,82.40
2018-07-16T19:50:20.387Z,82.60
2018-07-16T19:52:48.872Z,82.60
2018-07-16T19:55:17.396Z,83.00
2018-07-16T19:57:45.790Z,83.00
2018-07-16T20:00:14.340Z,83.40
2018-07-16T20:02:42.863Z,83.30
2018-07-16T20:05:11.308Z,83.30
2018-07-16T20:07:39.765Z,83.10
2018-07-16T20:10:08.230Z,83.10
2018-07-16T20:12:37.789Z,83.30
2018-07-16T20:15:08.346Z,83.50
2018-07-16T20:17:36.862Z,83.40
2018-07-16T20:20:07.797Z,83.40
2018-07-16T20:22:36.337Z,83.40
2018-07-16T20:25:05.437Z,83.70
2018-07-16T20:27:33.925Z,84.10
2018-07-16T20:30:02.439Z,84.10
2018-07-16T20:32:31.219Z,84.10
2018-07-16T20:34:59.593Z,84.40
2018-07-16T20:37:28.079Z,84.50
2018-07-16T20:42:24.684Z,84.50
2018-07-16T20:44:53.116Z,84.50
2018-07-16T20:47:21.571Z,84.50
2018-07-16T20:49:50.164Z,84.50
2018-07-16T20:52:18.610Z,84.60
2018-07-16T20:54:47.085Z,84.60
2018-07-16T20:57:15.527Z,84.30
2018-07-16T20:59:43.979Z,84.10
2018-07-16T21:02:12.796Z,84.30
2018-07-16T21:04:41.212Z,84.60
2018-07-16T21:07:09.859Z,84.70
2018-07-16T21:09:38.350Z,84.80
2018-07-16T21:12:06.822Z,85.10
2018-07-16T21:14:35.340Z,84.90
2018-07-16T21:17:03.765Z,84.60
2018-07-16T21:19:32.196Z,84.90
2018-07-16T21:24:28.908Z,85.30
2018-07-16T21:26:57.337Z,85.50
2018-07-16T21:29:25.787Z,85.50
2018-07-16T21:31:54.208Z,85.60
2018-07-16T21:34:22.653Z,85.60
2018-07-16T21:36:51.105Z,85.40
2018-07-16T21:39:19.543Z,85.10
2018-07-16T21:41:48.063Z,85.10
2018-07-16T21:44:16.550Z,85.20
2018-07-16T21:46:44.973Z,85.30
2018-07-16T21:49:13.464Z,85.20
2018-07-16T21:54:10.130Z,85.70
2018-07-16T21:56:38.582Z,86.00
2018-07-16T21:59:07.027Z,86.20
2018-07-16T22:04:03.620Z,86.30
2018-07-16T22:06:32.024Z,86.20
2018-07-16T22:09:00.509Z,86.20
2018-07-16T22:11:29.097Z,86.20
2018-07-16T22:13:57.542Z,86.20
2018-07-16T22:16:25.993Z,86.60
2018-07-16T22:18:54.470Z,86.60
2018-07-16T22:21:22.881Z,86.80
2018-07-16T22:23:51.493Z,86.80
2018-07-16T22:26:19.943Z,86.80
2018-07-16T22:28:48.499Z,86.80
2018-07-16T22:31:16.913Z,86.70
2018-07-16T22:33:45.352Z,86.80
2018-07-16T22:36:13.900Z,86.80
2018-07-16T22:38:42.348Z,86.70
2018-07-16T22:41:10.829Z,86.50
2018-07-16T22:43:39.280Z,86.50
2018-07-16T22:46:07.694Z,86.30
2018-07-16T22:48:36.137Z,86.50
2018-07-16T22:51:04.621Z,86.70
2018-07-16T22:53:33.104Z,86.80
2018-07-16T22:56:01.605Z,87.00
2018-07-16T22:58:30.040Z,87.10
2018-07-16T23:00:58.512Z,86.90
2018-07-16T23:03:26.942Z,86.90
2018-07-16T23:05:55.393Z,86.80
2018-07-16T23:08:23.797Z,86.80
2018-07-16T23:10:52.268Z,86.70
2018-07-16T23:15:48.961Z,86.50
2018-07-16T23:18:17.388Z,86.60
2018-07-16T23:20:45.845Z,87.00
2018-07-16T23:23:15.108Z,87.10
2018-07-16T23:25:43.570Z,87.10
2018-07-16T23:28:12.001Z,87.00
2018-07-16T23:30:40.427Z,87.00
2018-07-16T23:33:08.860Z,87.00
2018-07-16T23:35:37.393Z,87.00
2018-07-16T23:38:05.792Z,87.10
2018-07-16T23:40:34.256Z,87.00
2018-07-16T23:43:02.665Z,86.50
2018-07-16T23:45:31.148Z,86.50
2018-07-16T23:47:59.646Z,86.30
2018-07-16T23:50:28.131Z,86.30
2018-07-16T23:52:56.566Z,86.00
2018-07-16T23:55:25.194Z,86.20
2018-07-16T23:57:53.648Z,86.50
